createdAt,value
2018-07-08T00:00:23.045Z,8.40
2018-07-08T00:02:55.334Z,7.20
2018-07-08T00:05:27.812Z,8.10
2018-07-08T00:08:00.073Z,7.70
2018-07-08T00:10:32.428Z,6.90
2018-07-08T00:13:04.876Z,6.30
2018-07-08T00:15:37.139Z,7.50
2018-07-08T00:18:10.656Z,7.87
2018-07-08T00:20:43.987Z,6.97
2018-07-08T00:23:16.925Z,6.90
2018-07-08T00:25:50.326Z,7.77
2018-07-08T00:29:08.178Z,6.73
2018-07-08T00:31:40.412Z,7.80
2018-07-08T00:34:12.629Z,8.43
2018-07-08T00:36:44.962Z,6.83
2018-07-08T00:39:17.062Z,6.43
2018-07-08T00:41:49.258Z,6.40
2018-07-08T00:44:21.652Z,7.07
2018-07-08T00:47:30.518Z,6.87
2018-07-08T00:50:02.928Z,8.83
2018-07-08T00:52:35.407Z,8.33
2018-07-08T00:55:07.884Z,6.30
2018-07-08T00:57:40.267Z,6.90
2018-07-08T01:00:19.078Z,7.23
2018-07-08T01:02:51.458Z,8.20
2018-07-08T01:05:24.198Z,7.63
2018-07-08T01:07:56.703Z,9.33
2018-07-08T01:13:50.716Z,9.40
2018-07-08T01:16:23.408Z,8.10
2018-07-08T01:18:57.086Z,7.23
2018-07-08T01:21:29.820Z,7.80
2018-07-08T01:24:02.518Z,7.77
2018-07-08T01:26:35.651Z,7.80
2018-07-08T01:32:39.650Z,9.97
2018-07-08T01:35:14.770Z,8.67
2018-07-08T01:37:47.489Z,8.13
2018-07-08T01:40:21.231Z,8.70
2018-07-08T01:42:53.880Z,10.77
2018-07-08T01:45:26.692Z,9.40
2018-07-08T01:47:59.421Z,8.73
2018-07-08T01:50:32.136Z,11.27
2018-07-08T01:53:05.688Z,12.33
2018-07-08T01:58:59.403Z,8.40
2018-07-08T02:01:31.871Z,8.77
2018-07-08T02:04:04.581Z,8.63
2018-07-08T02:06:37.006Z,7.70
2018-07-08T02:09:11.374Z,9.13
2018-07-08T02:11:47.597Z,9.20
2018-07-08T02:14:23.297Z,10.87
2018-07-08T02:16:57.462Z,8.30
2018-07-08T02:19:36.846Z,9.87
2018-07-08T02:22:16.452Z,10.90
2018-07-08T02:24:48.914Z,11.07
2018-07-08T02:27:23.000Z,9.90
2018-07-08T02:29:54.313Z,9.67
2018-07-08T02:32:27.000Z,9.37
2018-07-08T02:34:59.419Z,10.77
2018-07-08T02:37:32.168Z,10.30
2018-07-08T02:40:05.317Z,9.93
2018-07-08T02:42:39.150Z,9.40
2018-07-08T02:45:12.863Z,8.63
2018-07-08T02:47:53.808Z,10.47
2018-07-08T02:50:26.658Z,11.23
2018-07-08T02:53:00.785Z,11.03
2018-07-08T02:55:41.764Z,10.23
2018-07-08T02:58:14.384Z,10.70
2018-07-08T03:00:47.280Z,9.73
2018-07-08T03:03:22.151Z,9.20
2018-07-08T03:05:54.616Z,8.60
2018-07-08T03:08:27.029Z,9.77
2018-07-08T03:10:59.389Z,8.97
2018-07-08T03:13:32.231Z,10.87
2018-07-08T03:16:04.787Z,9.20
2018-07-08T03:18:37.624Z,9.07
2018-07-08T03:21:14.990Z,8.27
2018-07-08T03:23:47.590Z,8.73
2018-07-08T03:26:19.966Z,8.33
2018-07-08T03:28:53.083Z,9.80
2018-07-08T03:34:12.751Z,8.40
2018-07-08T03:36:54.570Z,8.90
2018-07-08T03:39:30.801Z,8.03
2018-07-08T03:42:03.307Z,7.67
2018-07-08T03:44:35.698Z,9.90
2018-07-08T03:47:08.393Z,11.27
2018-07-08T03:53:01.876Z,11.43
2018-07-08T03:55:34.740Z,11.17
2018-07-08T03:58:07.549Z,10.93
2018-07-08T04:00:47.536Z,11.67
2018-07-08T04:03:20.414Z,10.17
2018-07-08T04:05:53.055Z,9.93
2018-07-08T04:08:25.866Z,9.00
2018-07-08T04:10:58.417Z,10.47
2018-07-08T04:13:31.451Z,11.23
2018-07-08T04:16:04.268Z,9.33
2018-07-08T04:18:36.980Z,12.90
2018-07-08T04:21:09.783Z,11.60
2018-07-08T04:23:42.408Z,10.63
2018-07-08T04:26:15.120Z,11.60
2018-07-08T04:28:47.912Z,9.90
2018-07-08T04:31:20.763Z,10.87
2018-07-08T04:33:53.520Z,9.53
2018-07-08T04:36:26.268Z,9.93
2018-07-08T04:38:58.931Z,10.13
2018-07-08T04:41:31.731Z,9.13
2018-07-08T04:44:04.475Z,8.60
2018-07-08T04:46:37.236Z,7.73
2018-07-08T04:49:10.178Z,10.50
2018-07-08T04:51:42.872Z,8.80
2018-07-08T04:54:16.717Z,9.37
2018-07-08T04:56:49.463Z,9.73
2018-07-08T04:59:22.139Z,9.50
2018-07-08T05:01:55.059Z,10.27
2018-07-08T05:04:27.810Z,9.27
2018-07-08T05:07:01.324Z,10.83
2018-07-08T05:09:34.165Z,9.27
2018-07-08T05:12:06.830Z,9.63
2018-07-08T05:14:39.517Z,9.53
2018-07-08T05:17:12.700Z,10.00
2018-07-08T05:19:45.648Z,9.67
2018-07-08T05:22:18.192Z,8.73
2018-07-08T05:24:50.815Z,9.00
2018-07-08T05:27:23.630Z,9.00
2018-07-08T05:29:56.595Z,11.30
2018-07-08T05:32:29.451Z,10.53
2018-07-08T05:35:02.029Z,10.60
2018-07-08T05:37:34.752Z,10.30
2018-07-08T05:40:07.867Z,11.10
2018-07-08T05:42:40.613Z,10.70
2018-07-08T05:45:13.459Z,9.60
2018-07-08T05:47:46.295Z,11.33
2018-07-08T05:50:18.944Z,9.43
2018-07-08T05:52:51.819Z,10.90
2018-07-08T05:55:24.547Z,10.87
2018-07-08T05:57:57.710Z,9.63
2018-07-08T06:00:30.656Z,9.50
2018-07-08T06:03:03.488Z,9.63
2018-07-08T06:05:36.147Z,7.90
2018-07-08T06:08:08.921Z,10.03
2018-07-08T06:10:41.617Z,9.80
2018-07-08T06:13:14.358Z,9.70
2018-07-08T06:15:46.976Z,8.27
2018-07-08T06:18:19.864Z,9.13
2018-07-08T06:20:53.103Z,9.07
2018-07-08T06:23:25.819Z,9.10
2018-07-08T06:25:59.100Z,10.97
2018-07-08T06:28:31.809Z,9.70
2018-07-08T06:31:04.957Z,9.53
2018-07-08T06:33:37.855Z,10.10
2018-07-08T06:39:30.790Z,8.43
2018-07-08T06:42:03.175Z,10.03
2018-07-08T06:44:35.532Z,10.57
2018-07-08T06:47:06.787Z,9.93
2018-07-08T06:49:39.455Z,9.63
2018-07-08T06:52:11.934Z,10.50
2018-07-08T06:54:44.714Z,11.57
2018-07-08T06:57:17.173Z,9.80
2018-07-08T06:59:49.458Z,10.40
2018-07-08T07:02:21.911Z,9.77
2018-07-08T07:04:54.479Z,10.97
2018-07-08T07:07:27.668Z,10.13
2018-07-08T07:10:00.180Z,10.43
2018-07-08T07:12:32.692Z,9.47
2018-07-08T07:15:05.093Z,9.23
2018-07-08T07:17:37.467Z,9.43
2018-07-08T07:20:10.072Z,9.90
2018-07-08T07:22:42.798Z,10.43
2018-07-08T07:25:15.292Z,10.47
2018-07-08T07:27:47.572Z,10.90
2018-07-08T07:30:21.961Z,11.00
2018-07-08T07:32:54.610Z,10.23
2018-07-08T07:35:27.358Z,11.60
2018-07-08T07:37:59.733Z,10.93
2018-07-08T07:40:32.304Z,11.33
2018-07-08T07:43:05.260Z,11.67
2018-07-08T07:45:37.899Z,11.67
2018-07-08T07:48:10.282Z,12.47
2018-07-08T07:50:42.609Z,13.50
2018-07-08T07:53:15.074Z,12.40
2018-07-08T07:55:47.672Z,12.93
2018-07-08T07:58:20.100Z,12.07
2018-07-08T08:00:52.508Z,11.97
2018-07-08T08:03:25.609Z,10.83
2018-07-08T08:05:57.906Z,11.97
2018-07-08T08:08:30.407Z,13.43
2018-07-08T08:11:02.825Z,13.13
2018-07-08T08:13:35.151Z,12.37
2018-07-08T08:16:07.495Z,12.07
2018-07-08T08:18:39.898Z,10.10
2018-07-08T08:21:12.466Z,11.47
2018-07-08T08:23:44.861Z,10.17
2018-07-08T08:26:17.318Z,9.80
2018-07-08T08:28:49.761Z,9.77
2018-07-08T08:31:22.083Z,10.20
2018-07-08T08:35:22.270Z,9.10
2018-07-08T08:37:58.424Z,9.23
2018-07-08T08:40:32.086Z,8.77
2018-07-08T08:43:04.640Z,10.83
2018-07-08T08:45:36.916Z,9.47
2018-07-08T08:48:33.846Z,8.90
2018-07-08T08:54:27.466Z,9.50
2018-07-08T08:56:59.859Z,9.43
2018-07-08T08:59:32.117Z,10.70
2018-07-08T09:02:04.329Z,10.10
2018-07-08T09:04:36.544Z,10.80
2018-07-08T09:07:09.540Z,11.33
2018-07-08T09:09:41.735Z,9.57
2018-07-08T09:12:14.414Z,10.83
2018-07-08T09:14:46.916Z,9.00
2018-07-08T09:17:19.172Z,9.50
2018-07-08T09:19:51.746Z,9.87
2018-07-08T09:22:23.952Z,10.60
2018-07-08T09:24:56.492Z,10.07
2018-07-08T09:27:28.867Z,9.97
2018-07-08T09:30:00.990Z,10.23
2018-07-08T09:35:54.542Z,8.70
2018-07-08T09:38:26.913Z,9.83
2018-07-08T09:40:58.071Z,10.00
2018-07-08T09:43:30.593Z,10.53
2018-07-08T09:46:35.440Z,9.87
2018-07-08T09:49:07.967Z,10.07
2018-07-08T09:51:40.426Z,9.13
2018-07-08T09:54:13.062Z,8.77
2018-07-08T09:56:45.620Z,8.93
2018-07-08T09:59:54.100Z,8.70
2018-07-08T10:02:26.958Z,10.00
2018-07-08T10:04:59.584Z,8.83
2018-07-08T10:07:32.246Z,7.50
2018-07-08T10:10:04.863Z,8.53
2018-07-08T10:12:37.450Z,8.20
2018-07-08T10:15:10.084Z,8.67
2018-07-08T10:17:42.742Z,8.13
2018-07-08T10:20:15.387Z,7.63
2018-07-08T10:22:48.464Z,7.87
2018-07-08T10:25:21.034Z,9.07
2018-07-08T10:28:24.345Z,9.50
2018-07-08T10:30:57.237Z,8.90
2018-07-08T10:33:33.929Z,8.90
2018-07-08T10:36:07.169Z,9.63
2018-07-08T10:42:00.580Z,9.57
2018-07-08T10:44:33.327Z,9.17
2018-07-08T10:47:05.843Z,9.87
2018-07-08T10:49:38.631Z,8.87
2018-07-08T10:52:11.188Z,8.30
2018-07-08T10:54:43.849Z,9.07
2018-07-08T10:57:16.647Z,9.50
2018-07-08T10:59:49.222Z,8.53
2018-07-08T11:02:21.828Z,8.87
2018-07-08T11:04:54.526Z,10.17
2018-07-08T11:07:27.219Z,9.23
2018-07-08T11:10:00.279Z,9.30
2018-07-08T11:12:32.820Z,8.50
2018-07-08T11:15:05.428Z,10.17
2018-07-08T11:17:38.219Z,9.90
2018-07-08T11:20:11.984Z,9.57
2018-07-08T11:22:44.791Z,10.00
2018-07-08T11:25:18.550Z,10.70
2018-07-08T11:27:53.695Z,10.07
2018-07-08T11:30:26.471Z,10.37
2018-07-08T11:33:07.675Z,10.23
2018-07-08T11:35:40.332Z,9.70
2018-07-08T11:38:12.870Z,10.57
2018-07-08T11:40:45.487Z,10.20
2018-07-08T11:43:18.174Z,10.50
2018-07-08T11:45:50.699Z,10.57
2018-07-08T11:48:23.409Z,9.50
2018-07-08T11:50:56.080Z,10.73
2018-07-08T11:53:31.791Z,8.63
2018-07-08T11:56:05.504Z,10.50
2018-07-08T11:58:38.183Z,10.13
2018-07-08T12:01:10.943Z,9.27
2018-07-08T12:03:43.483Z,9.67
2018-07-08T12:06:16.134Z,9.37
2018-07-08T12:08:50.156Z,9.50
2018-07-08T12:11:22.843Z,8.77
2018-07-08T12:13:54.575Z,10.10
2018-07-08T12:16:27.885Z,9.60
2018-07-08T12:19:02.988Z,9.20
2018-07-08T12:21:35.663Z,9.03
2018-07-08T12:24:09.286Z,8.67
2018-07-08T12:26:42.509Z,11.30
2018-07-08T12:29:16.083Z,10.03
2018-07-08T12:31:49.334Z,8.03
2018-07-08T12:34:22.108Z,7.87
2018-07-08T12:36:54.957Z,8.00
2018-07-08T12:39:26.186Z,7.63
2018-07-08T12:41:58.747Z,7.87
2018-07-08T12:47:52.825Z,9.43
2018-07-08T12:50:26.295Z,8.63
2018-07-08T12:52:59.067Z,8.27
2018-07-08T12:55:31.787Z,7.70
2018-07-08T12:58:04.615Z,7.23
2018-07-08T13:01:00.343Z,7.07
2018-07-08T13:03:33.598Z,7.27
2018-07-08T13:06:06.021Z,7.07
2018-07-08T13:08:38.332Z,6.90
2018-07-08T13:11:10.646Z,7.20
2018-07-08T13:13:42.938Z,7.80
2018-07-08T13:16:15.480Z,7.50
2018-07-08T13:22:09.581Z,6.97
2018-07-08T13:24:42.180Z,8.73
2018-07-08T13:27:13.507Z,6.57
2018-07-08T13:29:46.312Z,7.80
2018-07-08T13:32:41.748Z,7.40
2018-07-08T13:35:14.391Z,5.93
2018-07-08T13:37:45.561Z,7.80
2018-07-08T13:40:18.169Z,6.23
2018-07-08T13:42:50.880Z,6.63
2018-07-08T13:45:24.043Z,5.40
2018-07-08T13:47:56.797Z,5.90
2018-07-08T13:50:29.556Z,7.10
2018-07-08T13:53:02.310Z,7.23
2018-07-08T13:55:36.326Z,6.50
2018-07-08T13:58:10.029Z,6.80
2018-07-08T14:00:42.867Z,6.33
2018-07-08T14:03:16.171Z,6.33
2018-07-08T14:05:49.085Z,6.43
2018-07-08T14:08:58.412Z,5.77
2018-07-08T14:11:30.943Z,4.90
2018-07-08T14:17:34.425Z,5.40
2018-07-08T14:20:08.075Z,5.80
2018-07-08T14:22:41.132Z,5.83
2018-07-08T14:25:14.126Z,7.20
2018-07-08T14:27:47.344Z,6.17
2018-07-08T14:30:20.379Z,6.07
2018-07-08T14:32:53.355Z,6.83
2018-07-08T14:38:56.828Z,6.93
2018-07-08T14:41:29.272Z,5.37
2018-07-08T14:44:01.654Z,5.77
2018-07-08T14:46:34.186Z,7.90
2018-07-08T14:49:06.808Z,8.10
2018-07-08T14:51:39.255Z,6.57
2018-07-08T14:54:12.074Z,5.67
2018-07-08T14:56:44.475Z,5.43
2018-07-08T14:59:16.919Z,7.30
2018-07-08T15:01:49.308Z,6.23
2018-07-08T15:04:21.770Z,5.80
2018-07-08T15:06:54.248Z,5.67
2018-07-08T15:09:26.712Z,5.03
2018-07-08T15:11:59.104Z,4.23
2018-07-08T15:17:39.376Z,5.97
2018-07-08T15:20:12.164Z,4.80
2018-07-08T15:22:45.604Z,4.97
2018-07-08T15:25:18.315Z,4.30
2018-07-08T15:27:51.125Z,4.60
2018-07-08T15:30:23.820Z,4.73
2018-07-08T15:32:56.655Z,3.70
2018-07-08T15:35:29.826Z,4.87
2018-07-08T15:38:02.700Z,4.70
2018-07-08T15:40:36.121Z,4.60
2018-07-08T15:43:08.785Z,5.17
2018-07-08T15:45:41.564Z,4.10
2018-07-08T15:48:14.246Z,5.30
2018-07-08T15:50:47.427Z,4.40
2018-07-08T15:53:20.200Z,4.47
2018-07-08T15:55:52.962Z,3.83
2018-07-08T15:58:25.793Z,6.13
2018-07-08T16:00:58.865Z,3.70
2018-07-08T16:03:32.448Z,5.70
2018-07-08T16:06:05.889Z,3.83
2018-07-08T16:08:38.727Z,5.03
2018-07-08T16:11:11.852Z,7.30
2018-07-08T16:13:44.571Z,5.00
2018-07-08T16:16:17.412Z,4.33
2018-07-08T16:18:50.919Z,5.87
2018-07-08T16:21:23.752Z,6.10
2018-07-08T16:23:56.608Z,4.53
2018-07-08T16:26:29.349Z,4.37
2018-07-08T16:29:02.420Z,4.00
2018-07-08T16:31:35.314Z,4.57
2018-07-08T16:34:09.148Z,4.23
2018-07-08T16:36:42.173Z,4.40
2018-07-08T16:39:15.000Z,4.20
2018-07-08T16:41:47.838Z,4.53
2018-07-08T16:44:21.562Z,9.40
2018-07-08T16:46:55.305Z,4.87
2018-07-08T16:49:28.189Z,4.50
2018-07-08T16:52:01.362Z,4.90
2018-07-08T16:54:34.427Z,6.80
2018-07-08T16:57:07.419Z,4.37
2018-07-08T16:59:41.084Z,4.40
2018-07-08T17:02:14.069Z,4.80
2018-07-08T17:04:47.645Z,4.70
2018-07-08T17:07:21.275Z,5.63
2018-07-08T17:09:58.245Z,4.70
2018-07-08T17:12:31.489Z,5.07
2018-07-08T17:15:05.400Z,7.13
2018-07-08T17:17:38.452Z,4.57
2018-07-08T17:20:11.252Z,5.63
2018-07-08T17:22:43.940Z,4.53
2018-07-08T17:25:16.722Z,4.37
2018-07-08T17:27:49.535Z,4.00
2018-07-08T17:30:22.955Z,4.95
2018-07-08T17:32:55.604Z,4.90
2018-07-08T17:35:30.002Z,4.70
2018-07-08T17:38:03.358Z,4.58
2018-07-08T17:43:56.869Z,3.87
2018-07-08T17:46:29.390Z,4.03
2018-07-08T17:49:01.940Z,4.28
2018-07-08T17:51:34.341Z,5.00
2018-07-08T17:54:08.202Z,4.80
2018-07-08T17:56:40.870Z,6.13
2018-07-08T17:59:46.181Z,4.93
2018-07-08T18:02:19.059Z,4.00
2018-07-08T18:04:51.922Z,4.27
2018-07-08T18:07:24.877Z,3.80
2018-07-08T18:09:57.667Z,4.53
2018-07-08T18:12:30.678Z,8.65
2018-07-08T18:15:03.964Z,3.67
2018-07-08T18:17:38.695Z,6.78
2018-07-08T18:20:11.699Z,5.62
2018-07-08T18:26:05.232Z,4.67
2018-07-08T18:31:58.846Z,4.87
2018-07-08T18:34:31.339Z,4.87
2018-07-08T18:37:05.443Z,7.65
2018-07-08T18:43:00.014Z,4.90
2018-07-08T18:45:33.196Z,5.92
2018-07-08T18:48:06.061Z,5.25
2018-07-08T18:50:42.995Z,5.25
2018-07-08T18:56:36.329Z,5.58
2018-07-08T18:59:08.703Z,4.55
2018-07-08T19:01:40.994Z,5.45
2018-07-08T19:07:46.311Z,5.37
2018-07-08T19:10:19.594Z,3.75
2018-07-08T19:12:52.801Z,4.30
2018-07-08T19:15:25.302Z,4.87
2018-07-08T19:17:56.644Z,3.52
2018-07-08T19:20:29.463Z,4.10
2018-07-08T19:23:02.604Z,3.70
2018-07-08T19:25:42.359Z,4.80
2018-07-08T19:28:47.464Z,4.67
2018-07-08T19:31:19.949Z,4.08
2018-07-08T19:33:53.436Z,6.53
2018-07-08T19:36:26.532Z,8.05
2018-07-08T19:38:59.678Z,6.00
2018-07-08T19:41:31.926Z,4.03
2018-07-08T19:44:04.387Z,4.08
2018-07-08T19:46:36.959Z,4.25
2018-07-08T19:49:09.321Z,5.45
2018-07-08T19:51:41.317Z,4.15
2018-07-08T19:57:38.940Z,4.85
2018-07-08T20:00:11.215Z,3.33
2018-07-08T20:02:43.405Z,4.50
2018-07-08T20:05:15.785Z,5.05
2018-07-08T20:07:48.234Z,3.83
2018-07-08T20:10:20.832Z,4.45
2018-07-08T20:12:53.045Z,4.08
2018-07-08T20:15:25.315Z,4.28
2018-07-08T20:17:57.972Z,3.98
2018-07-08T20:20:30.287Z,5.03
2018-07-08T20:23:02.499Z,3.45
2018-07-08T20:25:34.614Z,4.58
2018-07-08T20:28:06.870Z,3.20
2018-07-08T20:30:39.231Z,4.10
2018-07-08T20:33:10.240Z,3.58
2018-07-08T20:35:42.614Z,4.80
2018-07-08T20:38:14.803Z,4.40
2018-07-08T20:40:46.968Z,4.40
2018-07-08T20:43:19.139Z,4.67
2018-07-08T20:45:51.378Z,3.85
2018-07-08T20:48:23.381Z,3.83
2018-07-08T20:54:16.794Z,3.72
2018-07-08T20:56:49.647Z,4.42
2018-07-08T20:59:22.473Z,4.28
2018-07-08T21:01:55.348Z,3.30
2018-07-08T21:04:51.046Z,5.40
2018-07-08T21:07:23.880Z,3.70
2018-07-08T21:09:56.604Z,3.67
2018-07-08T21:13:07.583Z,4.22
2018-07-08T21:15:40.511Z,3.80
2018-07-08T21:18:13.233Z,4.58
2018-07-08T21:20:45.897Z,3.67
2018-07-08T21:23:19.054Z,3.42
2018-07-08T21:25:52.069Z,4.37
2018-07-08T21:31:55.208Z,4.83
2018-07-08T21:34:28.042Z,4.07
2018-07-08T21:37:00.578Z,4.53
2018-07-08T21:39:33.407Z,4.08
2018-07-08T21:42:05.774Z,4.30
2018-07-08T21:44:38.539Z,4.25
2018-07-08T21:47:11.845Z,5.22
2018-07-08T21:49:44.314Z,4.70
2018-07-08T21:52:17.891Z,4.37
2018-07-08T21:54:51.909Z,4.30
2018-07-08T21:57:24.534Z,5.35
2018-07-08T21:59:59.539Z,4.70
2018-07-08T22:02:33.634Z,4.13
2018-07-08T22:05:06.161Z,4.90
2018-07-08T22:07:42.805Z,5.13
2018-07-08T22:10:15.300Z,6.03
2018-07-08T22:12:47.946Z,3.73
2018-07-08T22:15:21.386Z,4.17
2018-07-08T22:17:53.934Z,4.37
2018-07-08T22:20:26.462Z,4.80
2018-07-08T22:22:59.376Z,6.72
2018-07-08T22:25:32.493Z,4.83
2018-07-08T22:28:04.925Z,5.35
2018-07-08T22:30:37.340Z,5.12
2018-07-08T22:33:09.848Z,4.95
2018-07-08T22:35:42.384Z,4.72
2018-07-08T22:38:14.919Z,4.70
2018-07-08T22:40:47.743Z,7.23
2018-07-08T22:43:20.097Z,4.47
2018-07-08T22:45:53.235Z,4.23
2018-07-08T22:48:26.140Z,4.80
2018-07-08T22:50:58.624Z,5.80
2018-07-08T22:53:31.915Z,4.83
2018-07-08T22:56:04.207Z,5.37
2018-07-08T22:58:37.881Z,4.70
2018-07-08T23:01:19.636Z,4.58
2018-07-08T23:04:00.726Z,4.17
2018-07-08T23:06:33.276Z,4.00
2018-07-08T23:09:07.153Z,4.30
2018-07-08T23:11:39.691Z,3.47
2018-07-08T23:14:12.072Z,4.03
2018-07-08T23:16:44.477Z,5.00
2018-07-08T23:19:17.064Z,5.00
2018-07-08T23:21:49.507Z,3.87
2018-07-08T23:24:22.129Z,4.80
2018-07-08T23:26:54.923Z,3.43
2018-07-08T23:29:27.523Z,4.37
2018-07-08T23:31:59.998Z,4.30
2018-07-08T23:34:32.801Z,4.40
2018-07-08T23:37:05.440Z,4.57
2018-07-08T23:39:38.189Z,5.53
2018-07-08T23:45:31.604Z,6.10
2018-07-08T23:48:03.862Z,6.57
2018-07-08T23:50:36.071Z,5.07
2018-07-08T23:56:29.859Z,4.83
2018-07-08T23:59:02.596Z,4.73
